Time;durP1;ratioP1;P1;durP2;ratioP2;P2;SDS_P1;SDS_P2;PMS_P1;PMS_P2;Temp;Humidity;BMP_temperature;BMP_pressure;BME280_temperature;BME280_humidity;BME280_pressure;Samples;Min_cycle;Max_cycle;Signal;HPM_P1;HPM_P2
2022/02/06 00:00:10;;;;;;;7.80;2.93;;;3.80;79.60;;;;;;5099299;28;20206;-71
2022/02/06 00:02:40;;;;;;;4.50;2.80;;;3.70;79.60;;;;;;5092920;28;20787;-70
2022/02/06 00:05:06;;;;;;;9.70;3.37;;;3.70;79.90;;;;;;5091034;28;20517;-70
2022/02/06 00:07:31;;;;;;;3.90;2.60;;;3.80;79.70;;;;;;5092154;28;20425;-71
2022/02/06 00:09:57;;;;;;;6.00;2.93;;;3.80;79.50;;;;;;5092160;28;20452;-70
2022/02/06 00:12:23;;;;;;;6.77;2.97;;;3.80;79.50;;;;;;5091712;28;20210;-73
2022/02/06 00:14:49;;;;;;;6.70;2.93;;;3.90;79.20;;;;;;5085718;28;20421;-72
2022/02/06 00:17:15;;;;;;;5.40;2.57;;;3.90;79.00;;;;;;5092577;28;20186;-70
2022/02/06 00:19:43;;;;;;;5.13;2.40;;;3.90;79.00;;;;;;5092191;28;20195;-69
2022/02/06 00:22:13;;;;;;;6.90;2.50;;;3.90;79.30;;;;;;5092261;28;20467;-69
2022/02/06 00:24:54;;;;;;;6.07;3.10;;;3.90;79.20;;;;;;5092411;28;20425;-70
2022/02/06 00:27:36;;;;;;;4.50;2.40;;;4.00;78.70;;;;;;5092291;28;20505;-69
2022/02/06 00:30:23;;;;;;;5.20;2.10;;;4.10;78.60;;;;;;5084899;28;20448;-70
2022/02/06 00:32:55;;;;;;;5.37;2.40;;;4.10;78.30;;;;;;5089218;28;20471;-70
2022/02/06 00:35:48;;;;;;;6.53;3.00;;;4.10;78.30;;;;;;5091407;28;20912;-71
2022/02/06 00:43:20;;;;;;;6.40;2.83;;;4.00;79.00;;;;;;5090929;28;20510;-69
2022/02/06 00:45:45;;;;;;;9.90;3.27;;;3.90;79.50;;;;;;5091080;28;20474;-69
2022/02/06 00:48:12;;;;;;;6.27;2.67;;;3.90;79.70;;;;;;5091647;28;20198;-71
2022/02/06 00:50:42;;;;;;;4.93;3.03;;;3.80;80.00;;;;;;5092201;28;20210;-71
2022/02/06 00:53:15;;;;;;;9.20;3.10;;;3.80;80.80;;;;;;5091296;28;20452;-72
2022/02/06 00:55:41;;;;;;;7.40;3.17;;;3.80;80.60;;;;;;5090787;28;20417;-72
2022/02/06 00:58:07;;;;;;;8.17;2.87;;;3.80;80.50;;;;;;5090618;28;20421;-70
2022/02/06 01:00:32;;;;;;;3.70;2.27;;;3.90;80.30;;;;;;5090670;28;20198;-70
2022/02/06 01:02:58;;;;;;;5.23;2.10;;;3.90;80.30;;;;;;5090071;28;20405;-70
2022/02/06 01:05:24;;;;;;;5.33;2.17;;;3.90;80.00;;;;;;5090456;28;20179;-71
2022/02/06 01:07:51;;;;;;;6.73;2.50;;;4.00;79.60;;;;;;5090015;28;20179;-71
2022/02/06 01:10:17;;;;;;;6.30;2.30;;;4.10;79.00;;;;;;5093760;28;20244;-71
2022/02/06 01:12:49;;;;;;;6.03;1.90;;;4.20;78.60;;;;;;5094192;28;20468;-71
2022/02/06 01:15:20;;;;;;;3.00;2.63;;;4.30;78.10;;;;;;5090286;28;20233;-72
2022/02/06 01:18:08;;;;;;;2.87;2.07;;;4.30;77.80;;;;;;5095977;28;20427;-69
2022/02/06 01:20:42;;;;;;;5.30;2.30;;;4.40;77.70;;;;;;5098685;28;20503;-71
2022/02/06 01:23:22;;;;;;;3.90;2.10;;;4.40;77.40;;;;;;5105600;28;20420;-71
2022/02/06 01:25:58;;;;;;;12.10;2.33;;;4.40;77.40;;;;;;5106663;28;20416;-69
2022/02/06 01:28:35;;;;;;;8.17;2.33;;;4.40;77.60;;;;;;5105722;28;20413;-71
2022/02/06 01:31:39;;;;;;;7.27;2.03;;;4.40;77.40;;;;;;5105787;28;20476;-69
2022/02/06 01:33:53;;;;;;;5.03;2.20;;;4.40;77.60;;;;;;5101115;28;20432;-71
2022/02/06 01:41:27;;;;;;;5.00;2.50;;;4.40;77.30;;;;;;5098930;28;20447;-69
2022/02/06 01:44:00;;;;;;;6.33;2.50;;;4.50;77.40;;;;;;5097378;28;20425;-71
2022/02/06 02:31:26;;;;;;;3.60;2.07;;;4.70;76.10;;;;;;5092014;28;20469;-70
2022/02/06 02:47:14;;;;;;;5.90;1.90;;;4.80;75.80;;;;;;5090502;28;20497;-69
2022/02/06 02:49:46;;;;;;;4.53;1.97;;;4.70;75.90;;;;;;5091903;28;20429;-69
2022/02/06 02:52:21;;;;;;;6.40;2.23;;;4.70;75.90;;;;;;5091200;28;20460;-71
2022/02/06 02:54:51;;;;;;;2.33;1.80;;;4.70;76.20;;;;;;5091941;28;20413;-69
2022/02/06 02:57:30;;;;;;;4.70;1.77;;;4.70;76.10;;;;;;5092037;28;20414;-71
2022/02/06 03:00:37;;;;;;;3.37;1.50;;;4.70;76.10;;;;;;5092624;28;20436;-71
2022/02/06 03:02:52;;;;;;;8.20;2.30;;;4.70;76.10;;;;;;5092599;28;20429;-71
2022/02/06 03:05:18;;;;;;;4.57;1.97;;;4.70;76.10;;;;;;5094606;28;20462;-70
2022/02/06 03:07:44;;;;;;;3.93;2.37;;;4.80;76.10;;;;;;5096078;28;20421;-72
2022/02/06 03:10:10;;;;;;;9.00;2.80;;;4.80;76.10;;;;;;5094294;28;20195;-71
2022/02/06 03:12:36;;;;;;;4.00;1.83;;;4.70;76.40;;;;;;5089420;28;20270;-71
2022/02/06 03:15:18;;;;;;;3.57;1.73;;;4.70;76.70;;;;;;5085718;28;20409;-69
2022/02/06 03:17:56;;;;;;;2.27;1.60;;;4.70;76.80;;;;;;5091842;28;20420;-70
2022/02/06 03:20:22;;;;;;;3.97;2.10;;;4.60;77.00;;;;;;5090624;28;20429;-71
2022/02/06 03:22:53;;;;;;;5.80;1.93;;;4.50;77.30;;;;;;5088578;28;21887;-71
2022/02/06 03:25:21;;;;;;;3.10;1.90;;;4.50;77.70;;;;;;5091084;28;20422;-71
2022/02/06 03:27:48;;;;;;;2.73;1.70;;;4.50;77.40;;;;;;5091295;28;20946;-71
2022/02/06 03:30:14;;;;;;;7.80;1.80;;;4.50;77.60;;;;;;5088960;28;20514;-70
2022/02/06 03:32:40;;;;;;;3.47;1.80;;;4.50;77.40;;;;;;5089756;28;20496;-70
2022/02/06 03:35:06;;;;;;;4.67;1.87;;;4.50;77.60;;;;;;5091299;28;20456;-70
2022/02/06 03:37:32;;;;;;;7.30;1.53;;;4.50;77.70;;;;;;5089810;28;20187;-70
2022/02/06 03:40:01;;;;;;;9.53;1.80;;;4.50;77.60;;;;;;5091063;28;20444;-71
2022/02/06 03:42:35;;;;;;;4.90;2.20;;;4.50;77.60;;;;;;5088728;28;20183;-70
2022/02/06 03:45:06;;;;;;;11.10;2.10;;;4.50;77.80;;;;;;5083169;28;20425;-69
2022/02/06 03:47:56;;;;;;;4.33;1.63;;;4.60;78.00;;;;;;5090619;28;20429;-69
2022/02/06 03:50:20;;;;;;;5.10;2.23;;;4.60;77.80;;;;;;5090690;28;20903;-69
2022/02/06 03:52:51;;;;;;;6.00;1.90;;;4.70;77.70;;;;;;5088572;28;20549;-71
2022/02/06 03:55:20;;;;;;;3.60;1.60;;;4.70;77.40;;;;;;5090831;28;20461;-70
2022/02/06 03:57:51;;;;;;;3.93;1.60;;;4.70;77.40;;;;;;5091290;28;20902;-70
2022/02/06 04:00:20;;;;;;;4.63;2.13;;;4.70;77.70;;;;;;5090231;28;20444;-71
2022/02/06 04:02:46;;;;;;;4.03;1.90;;;4.70;77.70;;;;;;5091565;28;20482;-72
2022/02/06 04:05:17;;;;;;;3.30;1.80;;;4.70;77.70;;;;;;5094548;28;20425;-71
2022/02/06 04:07:44;;;;;;;6.20;2.37;;;4.70;77.70;;;;;;5095102;28;20452;-70
2022/02/06 04:10:12;;;;;;;8.50;2.00;;;4.70;77.60;;;;;;5093772;28;20544;-69
2022/02/06 04:12:40;;;;;;;4.87;1.87;;;4.80;77.70;;;;;;5088295;28;20468;-72
2022/02/06 04:15:12;;;;;;;3.77;1.70;;;4.80;77.40;;;;;;5083732;28;20409;-69
2022/02/06 04:17:46;;;;;;;11.00;2.30;;;4.70;77.30;;;;;;5090339;28;20618;-71
2022/02/06 04:20:12;;;;;;;6.97;1.60;;;4.80;77.40;;;;;;5090579;28;20433;-70
2022/02/06 04:22:38;;;;;;;3.20;1.70;;;4.80;77.30;;;;;;5087492;28;21199;-69
2022/02/06 04:25:05;;;;;;;6.23;2.30;;;4.80;77.10;;;;;;5089997;28;20179;-70
2022/02/06 04:27:30;;;;;;;5.20;1.70;;;4.80;77.00;;;;;;5090012;28;20259;-70
2022/02/06 04:29:57;;;;;;;4.20;2.00;;;4.90;76.80;;;;;;5090142;28;20465;-72
2022/02/06 04:32:25;;;;;;;6.80;1.70;;;4.90;76.40;;;;;;5087892;28;20219;-72
2022/02/06 04:34:52;;;;;;;4.80;2.10;;;4.90;76.40;;;;;;5089746;28;20524;-71
2022/02/06 04:37:44;;;;;;;7.13;2.27;;;4.90;76.70;;;;;;5090021;28;20417;-70
2022/02/06 05:17:28;;;;;;;6.30;1.83;;;5.10;76.10;;;;;;5089319;28;20442;-71
2022/02/06 05:32:21;;;;;;;4.80;1.83;;;5.10;76.40;;;;;;5088520;28;20834;-72
2022/02/06 05:34:47;;;;;;;3.93;1.93;;;5.10;76.40;;;;;;5089195;28;20613;-72
2022/02/06 05:37:13;;;;;;;4.07;2.20;;;5.20;76.40;;;;;;5089294;28;20420;-71
2022/02/06 05:39:38;;;;;;;7.60;2.57;;;5.10;76.40;;;;;;5089331;28;20210;-71
2022/02/06 05:42:04;;;;;;;8.30;2.43;;;5.20;76.50;;;;;;5088740;28;20175;-70
2022/02/06 05:44:30;;;;;;;4.33;2.00;;;5.20;76.50;;;;;;5089358;28;20182;-70
2022/02/06 05:46:56;;;;;;;9.80;1.73;;;5.20;76.50;;;;;;5089932;28;20453;-69
2022/02/06 05:49:22;;;;;;;6.33;1.97;;;5.20;76.40;;;;;;5092360;28;20204;-68
2022/02/06 05:51:48;;;;;;;5.67;1.57;;;5.20;76.50;;;;;;5091262;28;20654;-69
2022/02/06 05:54:14;;;;;;;3.23;1.60;;;5.20;76.50;;;;;;5093444;28;20186;-67
2022/02/06 05:56:40;;;;;;;5.50;2.10;;;5.30;76.40;;;;;;5093994;28;20409;-69
2022/02/06 05:59:06;;;;;;;4.50;1.67;;;5.30;76.40;;;;;;5093159;28;20528;-69
2022/02/06 06:01:32;;;;;;;5.47;2.20;;;5.30;76.40;;;;;;5091875;28;20491;-68
2022/02/06 06:03:58;;;;;;;12.70;1.83;;;5.30;76.40;;;;;;5092601;28;20450;-70
2022/02/06 06:06:24;;;;;;;1.63;1.40;;;5.30;76.40;;;;;;5092536;28;20657;-70
2022/02/06 06:08:50;;;;;;;6.27;1.80;;;5.30;76.40;;;;;;5095717;28;20206;-70
2022/02/06 06:11:15;;;;;;;4.43;1.73;;;5.40;76.50;;;;;;5096788;28;20225;-71
2022/02/06 06:13:41;;;;;;;3.80;1.90;;;5.40;76.40;;;;;;5084757;28;20187;-71
2022/02/06 06:16:08;;;;;;;7.10;2.17;;;5.40;76.40;;;;;;5092461;28;20413;-69
2022/02/06 06:18:35;;;;;;;4.27;1.67;;;5.40;76.70;;;;;;5093091;28;20206;-71
2022/02/06 06:21:02;;;;;;;2.70;1.63;;;5.40;76.50;;;;;;5091584;28;20431;-70
2022/02/06 06:23:28;;;;;;;3.30;2.00;;;5.40;76.70;;;;;;5093001;28;20413;-68
2022/02/06 06:25:54;;;;;;;8.73;2.37;;;5.40;76.70;;;;;;5092119;28;20421;-70
2022/02/06 06:28:20;;;;;;;2.70;1.60;;;5.40;76.70;;;;;;5092189;28;20505;-71
2022/02/06 06:30:46;;;;;;;3.93;2.07;;;5.40;76.70;;;;;;5091531;28;20429;-69
2022/02/06 06:33:12;;;;;;;4.40;2.10;;;5.30;77.00;;;;;;5091923;28;20423;-72
2022/02/06 06:35:39;;;;;;;6.10;2.00;;;5.40;76.80;;;;;;5091586;28;20417;-69
2022/02/06 06:38:05;;;;;;;3.40;1.80;;;5.40;76.80;;;;;;5092972;28;20167;-70
2022/02/06 06:40:31;;;;;;;3.40;1.90;;;5.40;76.70;;;;;;5092088;28;20829;-70
2022/02/06 06:42:57;;;;;;;4.33;1.60;;;5.40;76.70;;;;;;5091266;28;20417;-70
2022/02/06 06:45:23;;;;;;;4.80;1.97;;;5.40;77.00;;;;;;5091619;28;20970;-71
2022/02/06 06:47:56;;;;;;;11.10;3.60;;;5.40;77.00;;;;;;5092226;28;20433;-68
2022/02/06 06:50:31;;;;;;;3.80;1.90;;;5.40;77.10;;;;;;5091910;28;20451;-69
2022/02/06 06:52:57;;;;;;;6.23;1.83;;;5.40;77.10;;;;;;5083496;28;20468;-69
2022/02/06 06:55:23;;;;;;;8.40;2.63;;;5.40;77.10;;;;;;5090202;28;20421;-71
2022/02/06 06:57:56;;;;;;;4.90;1.80;;;5.40;77.30;;;;;;5091493;28;20437;-68
2022/02/06 07:00:40;;;;;;;6.73;1.97;;;5.40;77.30;;;;;;5091790;28;20436;-71
2022/02/06 07:03:06;;;;;;;3.47;1.70;;;5.40;77.30;;;;;;5091371;28;20409;-69
2022/02/06 07:05:32;;;;;;;4.73;1.90;;;5.40;77.10;;;;;;5090353;28;20428;-70
2022/02/06 07:07:58;;;;;;;1.80;1.47;;;5.40;77.00;;;;;;5091804;28;20189;-72
2022/02/06 07:10:24;;;;;;;5.73;1.90;;;5.50;76.80;;;;;;5091193;28;20425;-70
2022/02/06 07:12:49;;;;;;;2.50;1.83;;;5.50;76.80;;;;;;5089010;28;20203;-71
2022/02/06 07:15:16;;;;;;;8.93;1.70;;;5.60;76.70;;;;;;5085143;28;20506;-70
2022/02/06 07:17:43;;;;;;;4.50;1.83;;;5.60;76.40;;;;;;5091294;28;20179;-70
2022/02/06 07:20:09;;;;;;;3.63;2.17;;;5.60;76.40;;;;;;5091336;28;20915;-70
2022/02/06 07:22:37;;;;;;;5.90;2.10;;;5.60;76.40;;;;;;5088820;28;20845;-70
2022/02/06 07:25:04;;;;;;;6.60;2.00;;;5.70;76.40;;;;;;5091044;28;20421;-69
2022/02/06 07:27:37;;;;;;;3.40;1.80;;;5.70;76.20;;;;;;5090848;28;20919;-71
2022/02/06 07:30:07;;;;;;;8.80;2.03;;;5.70;75.90;;;;;;5091061;28;20510;-71
2022/02/06 07:32:36;;;;;;;4.47;1.50;;;5.80;75.90;;;;;;5090089;28;20461;-71
2022/02/06 07:35:03;;;;;;;5.00;1.70;;;5.80;75.80;;;;;;5091009;28;20417;-71
2022/02/06 07:37:29;;;;;;;4.23;2.20;;;5.80;75.80;;;;;;5092187;28;20441;-71
2022/02/06 07:39:55;;;;;;;5.23;1.97;;;5.80;75.80;;;;;;5091114;28;20824;-71
2022/02/06 07:42:21;;;;;;;5.40;2.10;;;5.80;75.90;;;;;;5090680;28;20190;-72
2022/02/06 07:44:48;;;;;;;6.17;1.80;;;5.90;75.90;;;;;;5090833;28;20421;-70
2022/02/06 07:47:23;;;;;;;5.27;2.07;;;5.90;75.90;;;;;;5091299;28;20252;-71
2022/02/06 07:49:56;;;;;;;8.00;2.50;;;5.90;76.10;;;;;;5089685;28;20468;-70
2022/02/06 07:52:23;;;;;;;6.17;1.77;;;5.90;75.90;;;;;;5086296;28;20795;-70
2022/02/06 07:54:51;;;;;;;4.40;2.03;;;5.90;75.90;;;;;;5092099;28;20421;-69
2022/02/06 07:57:18;;;;;;;5.13;1.97;;;6.00;75.70;;;;;;5091117;28;20405;-71
2022/02/06 07:59:44;;;;;;;4.67;2.10;;;6.00;75.80;;;;;;5090794;28;20479;-70
2022/02/06 08:02:11;;;;;;;2.87;1.87;;;6.00;75.80;;;;;;5090718;28;20955;-72
2022/02/06 08:04:37;;;;;;;6.03;1.80;;;6.00;75.70;;;;;;5096049;28;20428;-70
2022/02/06 08:07:05;;;;;;;5.40;2.70;;;6.00;75.70;;;;;;5094243;28;20428;-70
2022/02/06 08:09:46;;;;;;;8.10;2.43;;;6.00;75.70;;;;;;5090485;28;20437;-71
2022/02/06 08:12:14;;;;;;;5.80;1.57;;;6.10;75.50;;;;;;5091853;28;20469;-71
2022/02/06 08:14:55;;;;;;;6.23;2.13;;;6.10;75.50;;;;;;5087310;28;20417;-68
2022/02/06 08:17:41;;;;;;;4.07;2.00;;;6.20;75.20;;;;;;5090205;28;20417;-69
2022/02/06 08:20:09;;;;;;;8.40;2.23;;;6.20;75.20;;;;;;5084464;28;20445;-72
2022/02/06 08:22:35;;;;;;;2.63;1.60;;;6.20;74.90;;;;;;5088603;28;20473;-71
2022/02/06 08:25:02;;;;;;;3.93;1.70;;;6.20;75.10;;;;;;5092080;28;20490;-72
2022/02/06 08:27:28;;;;;;;4.90;1.77;;;6.20;75.20;;;;;;5091608;28;20183;-69
2022/02/06 08:29:54;;;;;;;4.17;1.70;;;6.30;75.10;;;;;;5085371;28;20847;-71
2022/02/06 08:32:22;;;;;;;6.00;1.97;;;6.30;75.20;;;;;;5089669;28;20465;-70
2022/02/06 08:34:49;;;;;;;4.57;1.57;;;6.30;74.80;;;;;;5090318;28;20425;-70
2022/02/06 08:37:15;;;;;;;7.50;2.60;;;6.40;74.80;;;;;;5089996;28;20872;-71
2022/02/06 08:39:42;;;;;;;10.73;1.90;;;6.40;74.50;;;;;;5089880;28;20455;-69
2022/02/06 08:42:09;;;;;;;3.93;1.87;;;6.40;74.50;;;;;;5088047;28;20432;-71
2022/02/06 08:44:39;;;;;;;7.77;1.70;;;6.50;74.00;;;;;;5088726;28;20414;-70
2022/02/06 08:47:06;;;;;;;4.63;2.03;;;6.50;73.90;;;;;;5089914;28;20871;-70
2022/02/06 08:49:33;;;;;;;3.03;1.73;;;6.60;73.60;;;;;;5089011;28;20914;-70
2022/02/06 08:51:58;;;;;;;4.47;1.60;;;6.70;73.20;;;;;;5088987;28;20518;-69
2022/02/06 08:54:33;;;;;;;5.90;1.80;;;6.80;73.20;;;;;;5089124;28;20421;-70
2022/02/06 08:57:02;;;;;;;3.30;2.10;;;6.80;72.90;;;;;;5090014;28;20175;-71
2022/02/06 08:59:30;;;;;;;8.73;1.80;;;6.80;72.90;;;;;;5090286;28;20475;-71
2022/02/06 09:02:01;;;;;;;9.23;1.70;;;6.90;72.40;;;;;;5089271;28;20440;-71
2022/02/06 09:04:27;;;;;;;3.47;1.43;;;6.90;72.60;;;;;;5090726;28;20512;-70
2022/02/06 09:06:57;;;;;;;6.67;2.00;;;7.00;72.30;;;;;;5088486;28;20432;-71
2022/02/06 09:09:23;;;;;;;3.77;1.63;;;7.00;72.00;;;;;;5092283;28;20483;-71
2022/02/06 09:11:51;;;;;;;8.47;2.13;;;7.10;72.00;;;;;;5092868;28;20473;-71
2022/02/06 09:14:18;;;;;;;3.27;1.80;;;7.10;71.70;;;;;;5085527;28;20422;-71
2022/02/06 09:16:44;;;;;;;3.70;1.70;;;7.10;72.00;;;;;;5089781;28;20417;-70
2022/02/06 09:19:12;;;;;;;5.10;1.47;;;7.10;72.00;;;;;;5089808;28;20779;-72
2022/02/06 09:21:39;;;;;;;4.87;2.17;;;7.10;72.00;;;;;;5085588;28;20429;-71
2022/02/06 09:24:05;;;;;;;2.57;1.50;;;7.10;72.10;;;;;;5090612;28;20412;-72
2022/02/06 09:26:33;;;;;;;3.77;1.47;;;7.10;72.00;;;;;;5089992;28;20432;-70
2022/02/06 09:28:58;;;;;;;3.57;1.53;;;7.10;72.30;;;;;;5092505;28;20445;-73
2022/02/06 09:31:26;;;;;;;2.80;1.50;;;7.00;72.60;;;;;;5095793;28;20462;-72
2022/02/06 09:36:18;;;;;;;1.90;1.63;;;7.10;73.60;;;;;;5097727;28;20429;-72
2022/02/06 09:38:44;;;;;;;2.70;1.90;;;7.00;73.60;;;;;;5096666;28;20206;-71
2022/02/06 09:41:10;;;;;;;3.20;1.57;;;7.00;73.20;;;;;;5094159;28;20421;-71
2022/02/06 09:43:37;;;;;;;4.23;1.70;;;7.10;72.90;;;;;;5095218;28;20179;-73
2022/02/06 09:46:03;;;;;;;8.03;2.00;;;7.20;72.70;;;;;;5095071;28;20449;-70
2022/02/06 09:48:30;;;;;;;6.80;1.67;;;7.20;72.30;;;;;;5089989;28;20474;-71
2022/02/06 09:50:58;;;;;;;5.33;1.73;;;7.20;72.30;;;;;;5091285;28;20625;-71
2022/02/06 09:53:28;;;;;;;8.40;2.23;;;7.20;72.30;;;;;;5091530;28;20417;-71
2022/02/06 09:55:55;;;;;;;2.53;1.63;;;7.30;72.40;;;;;;5083153;28;20885;-71
2022/02/06 10:00:49;;;;;;;3.70;1.73;;;7.30;72.10;;;;;;5091971;28;20413;-71
2022/02/06 10:03:18;;;;;;;3.97;1.50;;;7.30;72.40;;;;;;5091891;28;20417;-71
2022/02/06 10:05:44;;;;;;;3.70;1.63;;;7.30;72.70;;;;;;5091152;28;20188;-71
2022/02/06 10:08:30;;;;;;;3.30;1.73;;;7.40;72.70;;;;;;5091525;28;20793;-72
2022/02/06 10:11:03;;;;;;;3.50;1.77;;;7.60;72.40;;;;;;5084584;28;20433;-71
2022/02/06 10:13:34;;;;;;;5.17;1.80;;;7.70;72.00;;;;;;5089562;28;20455;-72
2022/02/06 10:16:00;;;;;;;3.00;1.33;;;7.70;71.80;;;;;;5095012;28;20463;-72
2022/02/06 10:18:27;;;;;;;4.60;1.60;;;7.70;71.80;;;;;;5093651;28;20414;-72
2022/02/06 10:20:54;;;;;;;2.60;1.90;;;7.60;71.80;;;;;;5084667;28;20697;-71
2022/02/06 10:23:29;;;;;;;8.23;1.60;;;7.60;72.00;;;;;;5092066;28;21230;-70
2022/02/06 10:26:06;;;;;;;5.13;1.50;;;7.60;72.00;;;;;;5091247;28;20416;-71
2022/02/06 10:31:00;;;;;;;3.70;1.57;;;7.60;72.30;;;;;;5090911;28;21309;-72
2022/02/06 10:33:49;;;;;;;4.07;1.80;;;7.70;72.10;;;;;;5091001;28;20431;-71
2022/02/06 10:36:23;;;;;;;4.20;1.57;;;7.70;71.70;;;;;;5086251;28;20786;-72
2022/02/06 10:39:04;;;;;;;1.70;1.20;;;7.70;71.80;;;;;;5091136;28;20520;-72
2022/02/06 10:41:30;;;;;;;2.43;1.20;;;7.70;71.70;;;;;;5090492;28;20425;-71
2022/02/06 10:43:57;;;;;;;8.57;1.60;;;7.80;71.80;;;;;;5090867;28;20431;-72
2022/02/06 10:46:25;;;;;;;3.23;1.50;;;7.80;71.80;;;;;;5089780;28;20509;-72
2022/02/06 10:48:56;;;;;;;3.03;1.93;;;7.90;71.80;;;;;;5091911;28;20433;-71
2022/02/06 10:51:47;;;;;;;7.17;2.00;;;7.90;71.80;;;;;;5094166;28;20467;-72
2022/02/06 10:54:29;;;;;;;5.03;1.70;;;7.90;71.80;;;;;;5092710;28;20415;-71
2022/02/06 10:57:15;;;;;;;3.20;1.80;;;7.90;71.70;;;;;;5092695;28;20783;-72
2022/02/06 10:59:43;;;;;;;9.73;1.53;;;7.90;71.70;;;;;;5089745;28;20503;-71
2022/02/06 11:02:32;;;;;;;2.23;1.43;;;7.90;71.70;;;;;;5093859;28;20420;-71
2022/02/06 11:05:21;;;;;;;3.47;1.60;;;8.00;71.60;;;;;;5087688;28;20413;-69
2022/02/06 11:07:54;;;;;;;3.80;1.60;;;8.00;71.70;;;;;;5092499;28;20429;-70
2022/02/06 11:10:22;;;;;;;3.83;1.43;;;8.10;71.70;;;;;;5093786;28;20513;-72
2022/02/06 11:12:50;;;;;;;5.67;1.70;;;8.20;71.40;;;;;;5092725;28;20473;-70
2022/02/06 11:15:46;;;;;;;7.27;1.67;;;8.20;71.40;;;;;;5083512;28;20457;-70
2022/02/06 11:18:19;;;;;;;5.43;2.07;;;8.30;71.30;;;;;;5006957;28;20437;-71
2022/02/06 11:20:58;;;;;;;5.20;1.20;;;8.40;71.00;;;;;;4990314;28;20442;-71
2022/02/06 11:23:48;;;;;;;3.23;1.70;;;8.30;71.10;;;;;;5005619;28;20424;-71
2022/02/06 11:26:22;;;;;;;3.53;1.80;;;8.30;71.10;;;;;;5006707;28;20596;-72
2022/02/06 11:28:48;;;;;;;3.53;1.73;;;8.30;71.30;;;;;;5007385;28;20452;-71
2022/02/06 11:31:15;;;;;;;7.20;1.50;;;8.30;71.30;;;;;;5007298;28;20472;-72
2022/02/06 11:33:42;;;;;;;1.93;1.40;;;8.30;71.10;;;;;;5007121;28;20428;-70
2022/02/06 11:36:25;;;;;;;2.70;1.40;;;8.40;71.10;;;;;;5005227;28;20508;-71
2022/02/06 11:45:09;;;;;;;3.40;1.27;;;8.60;70.80;;;;;;5007044;28;20411;-72
2022/02/06 11:47:44;;;;;;;3.30;1.53;;;8.50;70.50;;;;;;5005283;28;20444;-71
2022/02/06 11:50:11;;;;;;;3.70;1.37;;;8.40;71.10;;;;;;5005781;28;21371;-71
2022/02/06 11:52:59;;;;;;;2.80;1.40;;;8.30;71.60;;;;;;5006622;28;20547;-70
2022/02/06 11:55:49;;;;;;;2.00;1.57;;;8.30;72.30;;;;;;5069970;28;20440;-71
2022/02/06 11:58:27;;;;;;;4.20;1.50;;;8.40;72.60;;;;;;5088548;28;20413;-71
2022/02/06 12:01:08;;;;;;;4.27;1.90;;;8.50;72.60;;;;;;5080973;28;20414;-72
2022/02/06 12:03:54;;;;;;;5.70;1.73;;;8.50;72.40;;;;;;5088957;28;20408;-72
2022/02/06 12:06:27;;;;;;;5.80;1.83;;;8.30;72.90;;;;;;5088500;28;20466;-73
2022/02/06 12:08:58;;;;;;;2.40;1.40;;;8.40;73.30;;;;;;5088815;28;20433;-72
2022/02/06 12:11:31;;;;;;;6.33;1.37;;;8.40;72.60;;;;;;5087996;28;20457;-71
2022/02/06 12:14:13;;;;;;;3.40;1.23;;;8.40;72.90;;;;;;5083192;28;20420;-71
2022/02/06 12:16:56;;;;;;;1.30;1.17;;;8.30;73.00;;;;;;5087636;28;20425;-71
2022/02/06 12:19:31;;;;;;;1.93;1.33;;;8.30;73.30;;;;;;5090428;28;20569;-71
2022/02/06 12:22:10;;;;;;;3.10;1.63;;;8.30;73.00;;;;;;5090237;28;20428;-72
2022/02/06 12:24:41;;;;;;;2.17;1.43;;;8.30;73.20;;;;;;5090140;28;21138;-69
2022/02/06 12:27:25;;;;;;;2.63;1.07;;;8.20;73.30;;;;;;5090408;28;20413;-71
2022/02/06 12:29:58;;;;;;;1.77;1.17;;;8.30;73.30;;;;;;5090966;28;20795;-73
2022/02/06 12:32:36;;;;;;;3.07;1.30;;;8.30;73.00;;;;;;5091043;28;20468;-72
2022/02/06 12:37:53;;;;;;;2.60;1.40;;;8.20;73.20;;;;;;5090679;28;20417;-72
2022/02/06 12:40:21;;;;;;;2.20;1.30;;;8.30;72.90;;;;;;5090953;28;21364;-73
2022/02/06 12:42:50;;;;;;;3.07;1.27;;;8.30;72.90;;;;;;5090061;28;20962;-71
2022/02/06 12:45:21;;;;;;;3.27;1.43;;;8.30;72.70;;;;;;5091097;28;20788;-70
2022/02/06 12:47:54;;;;;;;2.63;1.20;;;8.30;72.40;;;;;;5090939;28;20572;-72
2022/02/06 12:50:25;;;;;;;3.60;1.27;;;8.40;72.40;;;;;;5090766;28;20556;-71
2022/02/06 12:52:53;;;;;;;2.50;1.27;;;8.60;71.80;;;;;;5090872;28;20513;-72
2022/02/06 12:55:20;;;;;;;1.47;1.20;;;8.50;71.80;;;;;;5091233;28;20504;-70
2022/02/06 12:57:50;;;;;;;2.70;1.23;;;8.50;72.10;;;;;;5090252;28;20420;-72
2022/02/06 13:00:24;;;;;;;2.10;1.17;;;8.50;72.40;;;;;;5090648;28;20429;-72
2022/02/06 13:02:49;;;;;;;2.70;1.17;;;8.60;71.70;;;;;;5091140;28;20470;-73
2022/02/06 13:05:15;;;;;;;1.53;0.93;;;8.50;72.00;;;;;;5094784;28;20774;-73
2022/02/06 13:07:45;;;;;;;3.03;1.27;;;8.40;72.90;;;;;;5094769;28;20186;-72
2022/02/06 13:10:13;;;;;;;3.10;1.60;;;8.30;74.20;;;;;;5093306;28;20195;-73
2022/02/06 13:12:47;;;;;;;3.30;1.20;;;8.20;74.90;;;;;;5094543;28;20465;-71
2022/02/06 13:20:35;;;;;;;2.47;1.07;;;8.00;76.50;;;;;;5093546;28;20440;-72
2022/02/06 13:36:23;;;;;;;1.20;0.80;;;7.90;77.60;;;;;;5090020;28;20512;-72
2022/02/06 13:38:56;;;;;;;1.50;0.90;;;7.90;78.40;;;;;;5095415;28;20515;-72
2022/02/06 13:41:26;;;;;;;1.80;1.00;;;7.80;79.00;;;;;;5095828;28;20431;-72
2022/02/06 13:43:55;;;;;;;2.07;1.03;;;7.80;79.60;;;;;;5093184;28;20433;-73
2022/02/06 13:46:26;;;;;;;3.57;1.00;;;7.80;80.20;;;;;;5093159;28;20903;-73
2022/02/06 13:48:53;;;;;;;1.20;0.87;;;7.60;80.80;;;;;;5094407;28;20444;-73
2022/02/06 13:51:40;;;;;;;4.13;1.23;;;7.50;81.80;;;;;;5093763;28;20518;-70
2022/02/06 13:54:15;;;;;;;2.90;1.00;;;7.40;82.20;;;;;;5088247;28;20413;-73
2022/02/06 13:56:41;;;;;;;1.20;0.90;;;7.30;83.30;;;;;;5092701;28;20496;-73
2022/02/06 13:59:14;;;;;;;5.63;1.20;;;7.20;84.00;;;;;;5092515;28;20481;-72
2022/02/06 14:01:39;;;;;;;1.90;1.00;;;7.20;84.60;;;;;;5093510;28;20947;-71
2022/02/06 14:04:07;;;;;;;2.17;1.20;;;7.20;85.20;;;;;;5094147;28;20417;-73
2022/02/06 14:06:41;;;;;;;1.57;1.00;;;7.20;85.90;;;;;;5093607;28;20187;-71
2022/02/06 14:09:33;;;;;;;1.87;1.17;;;7.10;86.20;;;;;;5097930;28;20938;-71
2022/02/06 14:12:05;;;;;;;2.60;1.10;;;7.00;86.60;;;;;;5095487;28;20457;-73
2022/02/06 14:14:35;;;;;;;2.67;1.20;;;6.90;88.10;;;;;;5089068;28;20515;-72
2022/02/06 14:17:08;;;;;;;1.57;0.90;;;6.80;88.10;;;;;;5095589;28;20416;-73
2022/02/06 14:19:41;;;;;;;1.40;1.00;;;6.70;88.70;;;;;;5093757;28;20444;-72
2022/02/06 14:22:08;;;;;;;2.07;0.90;;;6.60;89.70;;;;;;5092713;28;20433;-74
2022/02/06 14:25:02;;;;;;;1.70;1.13;;;6.50;90.20;;;;;;5098107;28;20420;-73
2022/02/06 14:27:44;;;;;;;3.53;1.10;;;6.50;90.30;;;;;;5091909;28;20919;-72
2022/02/06 14:30:19;;;;;;;1.33;1.00;;;6.50;90.30;;;;;;5092585;28;21014;-73
2022/02/06 14:33:08;;;;;;;1.80;0.70;;;6.50;90.80;;;;;;5092839;28;20471;-72
2022/02/06 14:35:56;;;;;;;1.90;0.80;;;6.50;90.40;;;;;;5093177;28;20906;-71
2022/02/06 14:38:42;;;;;;;0.70;0.63;;;6.50;90.70;;;;;;5093704;28;20415;-72
2022/02/06 14:43:43;;;;;;;3.53;1.20;;;6.30;91.40;;;;;;5093551;28;20488;-72
2022/02/06 14:46:10;;;;;;;1.97;1.00;;;6.30;91.30;;;;;;5092841;28;20826;-72
2022/02/06 14:48:37;;;;;;;1.80;0.90;;;6.30;91.60;;;;;;5092512;28;20437;-72
2022/02/06 14:51:04;;;;;;;1.20;0.90;;;6.30;91.60;;;;;;5091664;28;20413;-72
2022/02/06 14:53:30;;;;;;;1.30;0.70;;;6.20;91.80;;;;;;5091751;28;20928;-72
2022/02/06 14:55:57;;;;;;;1.20;0.90;;;6.20;92.00;;;;;;5091947;28;20417;-71
2022/02/06 14:58:26;;;;;;;2.30;0.90;;;6.20;92.10;;;;;;5092204;28;20421;-72
2022/02/06 15:00:53;;;;;;;2.10;0.90;;;6.10;92.40;;;;;;5091396;28;20951;-72
2022/02/06 15:03:19;;;;;;;1.60;0.80;;;6.10;93.00;;;;;;5091719;28;20449;-73
2022/02/06 15:05:50;;;;;;;2.30;0.80;;;6.00;92.90;;;;;;5089879;28;20433;-71
2022/02/06 15:08:18;;;;;;;1.67;0.90;;;6.00;92.80;;;;;;5093012;28;20838;-71
2022/02/06 15:10:44;;;;;;;1.10;0.80;;;6.00;93.20;;;;;;5092497;28;20959;-72
2022/02/06 15:13:11;;;;;;;1.90;0.93;;;5.90;93.50;;;;;;5093402;28;20530;-72
2022/02/06 15:15:47;;;;;;;0.77;0.73;;;5.90;93.40;;;;;;5087552;28;20441;-72
2022/02/06 15:18:26;;;;;;;1.73;1.00;;;5.90;93.20;;;;;;5092478;28;20482;-71
2022/02/06 15:20:54;;;;;;;0.90;0.60;;;5.80;93.60;;;;;;5091288;28;20436;-72
2022/02/06 15:23:20;;;;;;;0.90;0.80;;;5.80;93.90;;;;;;5091634;28;20413;-72
2022/02/06 15:25:47;;;;;;;1.17;0.77;;;5.70;94.00;;;;;;5090160;28;20453;-72
2022/02/06 15:28:12;;;;;;;1.00;0.80;;;5.70;94.20;;;;;;5090499;28;20948;-71
2022/02/06 15:30:38;;;;;;;1.27;0.87;;;5.70;94.30;;;;;;5089181;28;20531;-72
2022/02/06 15:33:05;;;;;;;0.93;0.70;;;5.70;94.40;;;;;;5091159;28;20221;-72
2022/02/06 15:35:32;;;;;;;2.90;1.10;;;5.60;94.00;;;;;;5090955;28;20413;-73
2022/02/06 15:38:01;;;;;;;1.93;0.87;;;5.60;94.30;;;;;;5090622;28;20409;-72
2022/02/06 15:40:27;;;;;;;1.70;0.87;;;5.70;94.30;;;;;;5090233;28;20465;-73
2022/02/06 15:42:53;;;;;;;1.20;1.00;;;5.60;94.40;;;;;;5085392;28;20413;-73
2022/02/06 15:45:19;;;;;;;1.73;1.00;;;5.60;94.40;;;;;;5090432;28;20433;-72
2022/02/06 15:47:53;;;;;;;1.00;0.80;;;5.60;94.30;;;;;;5066954;28;20866;-73
2022/02/06 15:50:19;;;;;;;0.90;0.70;;;5.60;94.40;;;;;;5051280;28;20857;-72